Time;durP1;ratioP1;P1;durP2;ratioP2;P2;SDS_P1;SDS_P2;PMS_P1;PMS_P2;Temp;Humidity;BMP_temperature;BMP_pressure;BME280_temperature;BME280_humidity;BME280_pressure;Samples;Min_cycle;Max_cycle;Signal;HPM_P1;HPM_P2
2023/11/24 00:02:50;;;;;;;13.97;13.03;;;7.80;99.90;;;;;;4840542;29;20798;-39
2023/11/24 00:05:19;;;;;;;13.57;12.97;;;7.70;99.90;;;;;;4840223;29;20434;-39
2023/11/24 00:07:45;;;;;;;13.57;12.97;;;7.70;99.90;;;;;;4841184;29;20454;-38
2023/11/24 00:10:19;;;;;;;14.00;13.30;;;7.60;99.90;;;;;;4850223;29;20840;-39
2023/11/24 00:12:51;;;;;;;14.50;13.60;;;7.60;99.90;;;;;;4840350;29;20437;-38
2023/11/24 00:15:19;;;;;;;14.20;13.40;;;7.50;99.90;;;;;;4831686;29;20463;-39
2023/11/24 00:17:51;;;;;;;13.93;13.23;;;7.50;99.90;;;;;;4834206;29;20476;-37
2023/11/24 00:20:20;;;;;;;13.57;12.87;;;7.50;99.90;;;;;;4850694;29;20449;-39
2023/11/24 00:22:48;;;;;;;14.50;13.60;;;7.40;99.90;;;;;;4858562;29;20512;-38
2023/11/24 00:25:14;;;;;;;14.50;13.53;;;7.40;99.90;;;;;;4844906;29;20415;-38
2023/11/24 00:27:42;;;;;;;14.37;13.67;;;7.40;99.90;;;;;;4822986;29;20426;-38
2023/11/24 00:30:20;;;;;;;14.17;13.30;;;7.40;99.90;;;;;;4852933;29;20181;-38
2023/11/24 00:32:46;;;;;;;13.37;12.77;;;7.40;99.90;;;;;;4839998;29;20997;-38
2023/11/24 00:35:17;;;;;;;13.00;12.37;;;7.40;99.90;;;;;;4843861;29;20473;-38
2023/11/24 00:37:43;;;;;;;13.80;13.00;;;7.40;99.90;;;;;;4821779;29;20423;-39
2023/11/24 00:40:18;;;;;;;14.17;13.30;;;7.30;99.90;;;;;;4835445;29;20823;-39
2023/11/24 00:42:51;;;;;;;13.77;12.93;;;7.30;99.90;;;;;;4830073;29;20235;-38
2023/11/24 00:45:22;;;;;;;14.40;13.30;;;7.20;99.90;;;;;;4844792;29;21020;-40
2023/11/24 00:47:50;;;;;;;14.73;13.73;;;7.20;99.90;;;;;;4826603;29;20533;-40
2023/11/24 00:50:29;;;;;;;14.20;13.30;;;7.20;99.90;;;;;;4840123;29;20441;-38
2023/11/24 00:52:58;;;;;;;14.80;14.00;;;7.30;99.90;;;;;;4852438;29;20593;-39
2023/11/24 00:55:45;;;;;;;15.33;14.03;;;7.30;99.90;;;;;;4842041;29;20468;-38
2023/11/24 00:58:18;;;;;;;14.80;13.90;;;7.20;99.90;;;;;;4848183;29;20444;-38
2023/11/24 01:00:47;;;;;;;14.53;13.80;;;7.20;99.90;;;;;;4843379;29;20450;-39
2023/11/24 01:03:18;;;;;;;15.10;14.20;;;7.20;99.90;;;;;;4839340;29;20470;-38
2023/11/24 01:05:58;;;;;;;14.93;14.00;;;7.20;84.40;;;;;;4842114;29;20184;-38
2023/11/24 01:08:26;;;;;;;15.45;14.63;;;7.10;71.40;;;;;;4839259;29;20189;-38
2023/11/24 01:10:54;;;;;;;15.30;14.40;;;7.00;93.70;;;;;;4842110;29;20681;-38
2023/11/24 01:13:23;;;;;;;15.73;14.73;;;7.00;52.80;;;;;;4837942;29;20434;-38
2023/11/24 01:15:51;;;;;;;15.02;14.20;;;6.90;50.30;;;;;;4843881;29;20244;-38
2023/11/24 01:18:27;;;;;;;15.27;14.45;;;6.90;55.70;;;;;;4839065;29;20201;-38
2023/11/24 01:20:56;;;;;;;15.57;14.73;;;6.90;74.80;;;;;;4836990;29;20180;-39
2023/11/24 01:23:27;;;;;;;15.30;14.50;;;7.00;64.20;;;;;;4838181;29;20204;-39
2023/11/24 01:25:55;;;;;;;15.53;14.60;;;6.90;85.10;;;;;;4842165;29;20208;-39
2023/11/24 01:28:30;;;;;;;15.10;14.20;;;6.90;85.90;;;;;;4857033;29;20452;-38
2023/11/24 01:30:57;;;;;;;15.57;14.52;;;6.90;99.90;;;;;;4856956;29;20184;-38
2023/11/24 01:33:26;;;;;;;15.10;14.23;;;6.80;99.90;;;;;;4857468;29;20165;-38
2023/11/24 01:36:05;;;;;;;14.43;13.63;;;6.80;99.90;;;;;;4855558;29;20212;-39
2023/11/24 01:38:33;;;;;;;14.70;13.77;;;6.80;99.90;;;;;;4857121;29;20429;-39
2023/11/24 01:41:15;;;;;;;14.82;13.65;;;6.80;99.90;;;;;;4840991;29;20497;-39
2023/11/24 01:44:00;;;;;;;15.68;14.45;;;6.80;99.90;;;;;;4854649;29;20240;-39
2023/11/24 01:46:31;;;;;;;14.32;13.55;;;6.70;99.90;;;;;;4853635;29;20193;-39
2023/11/24 01:49:29;;;;;;;15.20;14.20;;;6.80;98.40;;;;;;4839701;29;20185;-39
2023/11/24 01:51:55;;;;;;;14.50;13.80;;;6.70;82.10;;;;;;4845386;29;20728;-37
2023/11/24 01:54:24;;;;;;;14.20;13.48;;;6.70;54.70;;;;;;4849905;29;20255;-38
2023/11/24 01:56:55;;;;;;;14.40;13.67;;;6.60;64.00;;;;;;4845724;29;20191;-38
2023/11/24 01:59:37;;;;;;;14.32;13.60;;;6.60;63.40;;;;;;4838455;29;20610;-39
2023/11/24 02:02:14;;;;;;;14.68;13.82;;;6.60;57.00;;;;;;4845307;29;20196;-38
2023/11/24 02:04:43;;;;;;;14.57;13.88;;;6.60;72.60;;;;;;4839522;29;20185;-39
2023/11/24 02:07:15;;;;;;;14.13;13.43;;;6.60;74.40;;;;;;4844689;29;20181;-38
2023/11/24 02:09:46;;;;;;;14.00;13.30;;;6.60;85.40;;;;;;4837211;29;20568;-39
2023/11/24 02:12:13;;;;;;;14.30;13.60;;;6.60;91.60;;;;;;4842203;29;20197;-40
2023/11/24 02:14:39;;;;;;;13.98;13.27;;;6.60;99.00;;;;;;4841023;29;20231;-39
2023/11/24 02:17:04;;;;;;;13.80;13.20;;;6.60;99.90;;;;;;4851889;29;20189;-39
2023/11/24 02:19:30;;;;;;;14.23;13.40;;;6.60;99.80;;;;;;4827738;29;20473;-38
2023/11/24 02:21:56;;;;;;;14.37;13.33;;;6.70;99.90;;;;;;4844691;29;20897;-38
2023/11/24 02:24:21;;;;;;;12.80;12.20;;;6.70;99.90;;;;;;4837656;29;20190;-38
2023/11/24 02:26:47;;;;;;;12.77;12.17;;;6.60;99.90;;;;;;4844735;29;20207;-38
2023/11/24 02:29:13;;;;;;;14.70;13.27;;;6.70;99.90;;;;;;4839401;29;20205;-38
2023/11/24 02:31:39;;;;;;;13.20;12.20;;;6.80;94.80;;;;;;4849691;29;20279;-38
2023/11/24 02:34:04;;;;;;;12.80;12.20;;;6.80;90.60;;;;;;4837488;29;20268;-38
2023/11/24 02:36:32;;;;;;;13.70;12.70;;;6.90;63.30;;;;;;4841735;29;20196;-38
2023/11/24 02:38:58;;;;;;;13.23;12.50;;;6.90;56.00;;;;;;4842793;29;20178;-38
2023/11/24 02:41:24;;;;;;;12.23;11.53;;;7.00;56.60;;;;;;4841865;29;20941;-39
2023/11/24 02:43:50;;;;;;;13.18;12.43;;;6.90;67.10;;;;;;4844049;29;20224;-38
2023/11/24 02:46:16;;;;;;;12.10;11.40;;;7.00;45.30;;;;;;4837001;29;20192;-38
2023/11/24 02:48:44;;;;;;;11.95;11.35;;;7.00;37.50;;;;;;4845859;29;20209;-38
2023/11/24 02:51:11;;;;;;;12.32;11.40;;;7.00;19.40;;;;;;4841690;29;20189;-37
2023/11/24 02:53:37;;;;;;;12.47;11.53;;;7.00;29.90;;;;;;4841028;29;20189;-37
2023/11/24 02:56:03;;;;;;;12.60;11.70;;;7.00;29.20;;;;;;4841613;29;20500;-39
2023/11/24 02:58:30;;;;;;;12.00;11.37;;;7.10;24.60;;;;;;4841561;29;21116;-38
2023/11/24 03:00:56;;;;;;;12.27;11.50;;;7.10;23.00;;;;;;4824830;29;20434;-38
2023/11/24 03:03:23;;;;;;;11.73;11.07;;;7.20;12.40;;;;;;4839571;29;20445;-38
2023/11/24 03:05:52;;;;;;;12.03;11.43;;;7.20;2.90;;;;;;4838921;29;20229;-39
2023/11/24 03:08:19;;;;;;;12.40;11.10;;;7.20;1.00;;;;;;4850911;29;20464;-38
2023/11/24 03:10:45;;;;;;;12.13;11.33;;;7.20;1.00;;;;;;4841459;29;20544;-38
2023/11/24 03:13:10;;;;;;;12.27;11.67;;;7.20;1.00;;;;;;4841241;29;21044;-38
2023/11/24 03:15:36;;;;;;;11.90;11.20;;;7.30;1.00;;;;;;4839920;29;20556;-38
2023/11/24 03:18:02;;;;;;;11.83;11.17;;;7.30;1.00;;;;;;4845082;29;20263;-37
2023/11/24 03:20:28;;;;;;;11.80;11.20;;;7.30;1.00;;;;;;4839035;29;20197;-38
2023/11/24 03:22:54;;;;;;;11.90;11.30;;;7.30;1.00;;;;;;4842624;29;20810;-38
2023/11/24 03:25:20;;;;;;;12.20;11.60;;;7.30;1.00;;;;;;4840936;29;20189;-38
2023/11/24 03:27:46;;;;;;;12.50;11.50;;;7.30;1.00;;;;;;4824577;29;20796;-38
2023/11/24 03:30:12;;;;;;;11.90;11.13;;;7.20;1.00;;;;;;4840378;29;21006;-38
2023/11/24 03:32:37;;;;;;;11.70;11.10;;;7.20;7.30;;;;;;4842650;29;20526;-38
2023/11/24 03:35:05;;;;;;;11.13;10.50;;;7.10;14.10;;;;;;4840317;29;20541;-37
2023/11/24 03:37:31;;;;;;;11.47;10.87;;;7.00;23.80;;;;;;4841047;29;20190;-37
2023/11/24 03:39:56;;;;;;;12.40;11.60;;;6.90;30.00;;;;;;4846833;29;20441;-37
2023/11/24 03:42:22;;;;;;;12.17;11.40;;;6.90;30.60;;;;;;4841878;29;20474;-38
2023/11/24 03:44:48;;;;;;;12.10;11.50;;;6.90;33.30;;;;;;4840873;29;20189;-38
2023/11/24 03:47:13;;;;;;;12.37;11.57;;;6.90;41.90;;;;;;4848929;29;20665;-37
2023/11/24 03:49:39;;;;;;;12.13;11.30;;;7.00;28.90;;;;;;4843971;29;20224;-38
2023/11/24 03:52:05;;;;;;;12.45;11.75;;;7.00;24.70;;;;;;4839635;29;20629;-37
2023/11/24 03:54:31;;;;;;;12.13;11.43;;;7.00;13.50;;;;;;4843940;29;20276;-37
2023/11/24 03:56:56;;;;;;;12.30;11.60;;;7.00;14.50;;;;;;4840597;29;20426;-37
2023/11/24 03:59:22;;;;;;;11.63;10.90;;;7.00;6.90;;;;;;4844290;29;20230;-38
2023/11/24 04:01:47;;;;;;;12.20;11.40;;;7.00;1.00;;;;;;4839567;29;20192;-38
2023/11/24 04:04:13;;;;;;;12.40;11.70;;;7.00;1.00;;;;;;4845813;29;20711;-38
2023/11/24 04:06:39;;;;;;;11.93;11.23;;;7.00;1.00;;;;;;4840690;29;20253;-38
2023/11/24 04:09:04;;;;;;;12.03;11.30;;;7.00;1.00;;;;;;4843598;29;20197;-36
2023/11/24 04:11:30;;;;;;;12.33;11.53;;;7.00;1.00;;;;;;4831090;29;20248;-38
2023/11/24 04:13:56;;;;;;;12.43;11.43;;;7.10;1.00;;;;;;4843426;29;20441;-37
2023/11/24 04:16:23;;;;;;;11.97;11.23;;;7.10;1.00;;;;;;4822802;29;20191;-38
2023/11/24 04:18:48;;;;;;;12.90;11.70;;;7.10;1.00;;;;;;4839194;29;20174;-39
2023/11/24 04:21:16;;;;;;;11.77;10.97;;;7.00;1.00;;;;;;4844757;29;20181;-37
2023/11/24 04:23:41;;;;;;;12.20;11.43;;;7.10;1.00;;;;;;4847647;29;20181;-37
2023/11/24 04:26:07;;;;;;;12.80;11.73;;;7.00;1.00;;;;;;4839473;29;20203;-38
2023/11/24 04:28:33;;;;;;;11.80;11.10;;;7.00;1.00;;;;;;4840869;29;20276;-38
2023/11/24 04:30:58;;;;;;;12.53;11.43;;;7.10;1.00;;;;;;4842897;29;20176;-38
2023/11/24 04:33:24;;;;;;;11.20;10.40;;;7.10;1.00;;;;;;4847382;29;20498;-38
2023/11/24 04:35:50;;;;;;;11.27;10.33;;;7.10;1.00;;;;;;4840169;29;20673;-38
2023/11/24 04:38:16;;;;;;;12.55;11.70;;;7.00;1.00;;;;;;4839973;29;20430;-38
2023/11/24 04:40:42;;;;;;;11.17;10.53;;;7.00;1.00;;;;;;4839729;29;20189;-38
2023/11/24 04:43:08;;;;;;;11.88;11.10;;;7.00;1.00;;;;;;4850385;29;20285;-39
2023/11/24 04:45:35;;;;;;;12.30;11.23;;;7.00;1.00;;;;;;4828175;29;20597;-37
2023/11/24 04:48:03;;;;;;;11.73;11.02;;;7.00;1.00;;;;;;4842026;29;20527;-38
2023/11/24 04:50:29;;;;;;;11.83;11.10;;;6.90;1.00;;;;;;4839507;29;20618;-39
2023/11/24 04:52:55;;;;;;;10.90;10.20;;;6.90;1.00;;;;;;4839959;29;20541;-39
2023/11/24 04:55:20;;;;;;;11.50;10.70;;;7.00;1.00;;;;;;4838889;29;20213;-38
2023/11/24 04:57:49;;;;;;;12.07;11.27;;;7.00;1.00;;;;;;4841905;29;20553;-39
2023/11/24 05:00:17;;;;;;;10.57;10.07;;;7.10;1.00;;;;;;4848267;29;20603;-38
2023/11/24 05:02:43;;;;;;;11.00;10.38;;;7.00;1.00;;;;;;4838631;29;20196;-37
2023/11/24 05:05:09;;;;;;;11.33;10.73;;;6.90;1.00;;;;;;4846782;29;20196;-38
2023/11/24 05:07:34;;;;;;;11.60;11.00;;;7.00;1.00;;;;;;4844505;29;20198;-39
2023/11/24 05:10:00;;;;;;;12.53;11.63;;;7.00;1.00;;;;;;4828531;29;20279;-38
2023/11/24 05:12:25;;;;;;;11.70;10.90;;;6.90;1.00;;;;;;4838911;29;20193;-37
2023/11/24 05:14:51;;;;;;;11.83;11.03;;;6.90;1.00;;;;;;4837593;29;20212;-38
2023/11/24 05:17:17;;;;;;;11.33;10.53;;;6.90;1.00;;;;;;4834854;29;21274;-38
2023/11/24 05:19:43;;;;;;;11.53;10.77;;;6.90;1.00;;;;;;4830987;29;20187;-37
2023/11/24 05:22:08;;;;;;;11.40;10.70;;;6.80;1.00;;;;;;4827669;29;20493;-37
2023/11/24 05:24:39;;;;;;;11.67;10.87;;;6.80;1.00;;;;;;4827108;29;20197;-63
2023/11/24 05:27:05;;;;;;;11.15;10.35;;;6.70;1.00;;;;;;4817068;29;20690;-63
2023/11/24 05:29:31;;;;;;;12.48;11.40;;;6.70;1.00;;;;;;4829922;29;20209;-62
2023/11/24 05:31:56;;;;;;;11.60;10.90;;;6.60;1.00;;;;;;4830635;29;20189;-63
2023/11/24 05:34:24;;;;;;;12.87;10.60;;;6.60;1.00;;;;;;4830288;29;20251;-56
2023/11/24 05:36:50;;;;;;;11.15;10.55;;;6.60;1.00;;;;;;4830551;29;20264;-63
2023/11/24 05:39:16;;;;;;;10.80;10.10;;;6.70;1.00;;;;;;4830191;29;20201;-64
2023/11/24 05:41:44;;;;;;;12.00;11.10;;;6.80;1.00;;;;;;4830089;29;20207;-64
2023/11/24 05:44:10;;;;;;;11.85;11.05;;;6.70;1.00;;;;;;4826705;29;20212;-64
2023/11/24 05:46:37;;;;;;;11.83;10.93;;;6.80;1.00;;;;;;4798447;29;20547;-56
2023/11/24 05:49:03;;;;;;;12.53;11.07;;;6.80;1.00;;;;;;4797608;29;20435;-62
2023/11/24 05:51:29;;;;;;;11.90;11.03;;;6.90;1.00;;;;;;4817504;29;20442;-59
2023/11/24 05:53:55;;;;;;;11.87;11.10;;;6.90;1.00;;;;;;4817119;29;20447;-62
2023/11/24 05:56:21;;;;;;;12.00;11.50;;;6.90;1.00;;;;;;4811895;29;20467;-62
2023/11/24 05:58:46;;;;;;;11.73;11.10;;;6.80;1.00;;;;;;4826056;29;20423;-60
2023/11/24 06:01:12;;;;;;;13.53;12.70;;;6.80;1.00;;;;;;4817174;29;20190;-61
2023/11/24 06:03:38;;;;;;;14.20;13.20;;;6.60;1.00;;;;;;4825464;29;20197;-54
2023/11/24 06:06:04;;;;;;;14.37;13.57;;;6.60;1.00;;;;;;4821423;29;20635;-54
2023/11/24 06:08:29;;;;;;;14.80;13.80;;;6.40;1.00;;;;;;4825826;29;20185;-48
2023/11/24 06:10:55;;;;;;;14.13;13.30;;;6.20;1.00;;;;;;4821961;29;20283;-51
2023/11/24 06:13:20;;;;;;;14.17;13.20;;;6.30;1.00;;;;;;4825629;29;20276;-46
2023/11/24 06:15:46;;;;;;;14.80;13.80;;;6.30;1.00;;;;;;4823370;29;20332;-61
2023/11/24 06:18:12;;;;;;;14.90;13.73;;;6.30;1.00;;;;;;4826199;29;20538;-60
2023/11/24 06:20:37;;;;;;;13.77;12.87;;;6.20;1.00;;;;;;4816994;29;20193;-52
2023/11/24 06:23:03;;;;;;;12.53;11.93;;;6.20;1.00;;;;;;4825699;29;20185;-61
2023/11/24 06:25:29;;;;;;;14.60;13.50;;;6.30;1.00;;;;;;4817398;29;20196;-55
2023/11/24 06:27:55;;;;;;;14.87;13.70;;;6.30;1.00;;;;;;4825058;29;20218;-62
2023/11/24 06:30:20;;;;;;;13.53;12.77;;;6.30;1.00;;;;;;4827582;29;20197;-58
2023/11/24 06:32:46;;;;;;;13.73;12.60;;;6.30;1.00;;;;;;4823910;29;21029;-61
2023/11/24 06:35:15;;;;;;;13.33;12.43;;;6.30;1.00;;;;;;4827758;29;20216;-62
2023/11/24 06:37:40;;;;;;;14.18;12.82;;;6.30;1.00;;;;;;4825792;29;20664;-61
2023/11/24 06:40:07;;;;;;;12.77;12.00;;;6.30;1.00;;;;;;4827636;29;20182;-59
2023/11/24 06:42:32;;;;;;;13.00;12.40;;;6.40;1.00;;;;;;4824782;29;20597;-60
2023/11/24 06:44:58;;;;;;;14.30;13.47;;;6.30;1.00;;;;;;4823625;29;20182;-39
2023/11/24 06:47:23;;;;;;;13.77;12.97;;;6.20;1.00;;;;;;4813046;29;20961;-37
2023/11/24 06:49:52;;;;;;;13.40;12.60;;;6.10;1.00;;;;;;4826355;29;20197;-38
2023/11/24 06:52:18;;;;;;;14.93;13.82;;;6.10;1.00;;;;;;4816655;29;20246;-39
2023/11/24 06:54:44;;;;;;;13.50;12.70;;;6.00;1.00;;;;;;4819896;29;20293;-40
2023/11/24 06:57:10;;;;;;;14.52;13.40;;;6.00;1.00;;;;;;4818159;29;20246;-38
2023/11/24 06:59:37;;;;;;;13.70;12.90;;;6.10;1.00;;;;;;4828285;29;20588;-38
2023/11/24 07:02:03;;;;;;;14.35;13.30;;;6.20;1.00;;;;;;4820198;29;20220;-60
2023/11/24 07:04:29;;;;;;;15.00;13.88;;;6.20;1.00;;;;;;4828501;29;20199;-61
2023/11/24 07:06:55;;;;;;;14.60;13.80;;;6.20;1.00;;;;;;4812139;29;20198;-60
2023/11/24 07:09:21;;;;;;;14.43;13.53;;;6.20;1.00;;;;;;4819860;29;21005;-60
2023/11/24 07:11:47;;;;;;;14.07;12.90;;;6.10;1.00;;;;;;4826308;29;20188;-61
2023/11/24 07:14:13;;;;;;;13.93;13.13;;;6.10;1.00;;;;;;4828402;29;20494;-61
2023/11/24 07:16:39;;;;;;;13.65;12.90;;;6.10;1.00;;;;;;4818191;29;20589;-46
2023/11/24 07:19:05;;;;;;;14.10;13.40;;;6.10;1.00;;;;;;4822324;29;20185;-60
2023/11/24 07:21:31;;;;;;;12.63;12.03;;;6.10;1.00;;;;;;4823422;29;20206;-60
2023/11/24 07:23:57;;;;;;;13.45;12.65;;;6.10;1.00;;;;;;4820207;29;20417;-62
2023/11/24 07:26:22;;;;;;;12.83;12.13;;;6.00;1.00;;;;;;4827840;29;20425;-62
2023/11/24 07:28:48;;;;;;;13.53;12.60;;;6.00;1.00;;;;;;4798028;29;20201;-50
2023/11/24 07:31:14;;;;;;;13.13;12.47;;;6.00;1.00;;;;;;4816941;29;20211;-50
2023/11/24 07:33:41;;;;;;;13.50;12.50;;;6.00;1.00;;;;;;4824050;29;20198;-61
2023/11/24 07:36:08;;;;;;;13.23;12.50;;;6.10;1.00;;;;;;4826323;29;20212;-61
2023/11/24 07:38:34;;;;;;;12.88;12.15;;;6.10;1.00;;;;;;4825275;29;20196;-62
2023/11/24 07:41:04;;;;;;;13.37;12.27;;;6.00;1.00;;;;;;4803087;29;20194;-62
2023/11/24 07:43:33;;;;;;;13.38;12.68;;;6.10;1.00;;;;;;4828103;29;20597;-61
2023/11/24 07:45:58;;;;;;;12.70;12.10;;;5.90;1.00;;;;;;4831765;29;20200;-45
2023/11/24 07:48:24;;;;;;;12.57;11.90;;;5.80;1.00;;;;;;4831781;29;20196;-61
2023/11/24 07:50:50;;;;;;;12.20;11.70;;;5.40;1.00;;;;;;4830723;29;20272;-62
2023/11/24 07:53:16;;;;;;;12.90;12.30;;;5.30;1.00;;;;;;4832432;29;20197;-62
2023/11/24 07:55:42;;;;;;;16.67;15.43;;;5.10;1.00;;;;;;4831011;29;20218;-61
2023/11/24 07:58:08;;;;;;;11.23;10.73;;;4.80;1.00;;;;;;4831705;29;20189;-52
2023/11/24 08:00:34;;;;;;;17.33;16.13;;;4.80;13.00;;;;;;4828707;29;20199;-62
2023/11/24 08:03:03;;;;;;;13.18;12.10;;;4.70;17.90;;;;;;4830205;29;20435;-62
2023/11/24 08:05:29;;;;;;;11.95;11.35;;;4.60;25.90;;;;;;4830503;29;20240;-54
2023/11/24 08:07:55;;;;;;;11.43;10.93;;;4.50;24.70;;;;;;4831431;29;20263;-61
2023/11/24 08:10:21;;;;;;;11.90;11.13;;;4.50;32.20;;;;;;4830666;29;20806;-62
2023/11/24 08:12:46;;;;;;;9.43;8.93;;;4.40;33.80;;;;;;4831270;29;20577;-62
2023/11/24 08:15:12;;;;;;;10.30;9.80;;;4.30;42.00;;;;;;4829035;29;20216;-62
2023/11/24 08:17:39;;;;;;;10.40;9.90;;;4.30;61.20;;;;;;4816937;29;20199;-63
2023/11/24 08:20:10;;;;;;;9.70;9.30;;;4.30;58.50;;;;;;4829440;29;20671;-37
2023/11/24 08:22:39;;;;;;;9.80;9.40;;;4.30;56.50;;;;;;4829813;29;20220;-38
2023/11/24 08:25:09;;;;;;;9.60;9.20;;;4.30;63.70;;;;;;4830474;29;20181;-38
2023/11/24 08:27:35;;;;;;;9.80;9.40;;;4.40;75.00;;;;;;4829667;29;20212;-38
2023/11/24 08:30:05;;;;;;;10.50;10.10;;;4.40;77.40;;;;;;4829380;29;20716;-39
2023/11/24 08:32:30;;;;;;;10.30;9.70;;;4.40;64.80;;;;;;4829366;29;20192;-37
2023/11/24 08:34:56;;;;;;;9.90;9.50;;;4.30;67.90;;;;;;4827224;29;20708;-37
2023/11/24 08:37:23;;;;;;;11.90;11.30;;;4.20;58.20;;;;;;4827874;29;20212;-38
2023/11/24 08:39:48;;;;;;;12.40;11.80;;;4.00;66.40;;;;;;4828587;29;20192;-38
2023/11/24 08:42:14;;;;;;;12.23;11.73;;;3.80;74.30;;;;;;4828123;29;20287;-39
2023/11/24 08:44:40;;;;;;;13.03;12.13;;;3.70;93.00;;;;;;4813640;29;20444;-38
2023/11/24 08:47:06;;;;;;;12.63;12.10;;;3.50;99.90;;;;;;4821360;29;21291;-39
2023/11/24 08:49:32;;;;;;;12.40;11.90;;;3.50;99.90;;;;;;4820481;29;20330;-38
2023/11/24 08:51:58;;;;;;;12.70;12.20;;;3.30;99.90;;;;;;4828253;29;20189;-37
2023/11/24 08:54:23;;;;;;;14.17;13.57;;;3.30;99.90;;;;;;4810970;29;20229;-39
2023/11/24 08:56:50;;;;;;;13.63;12.93;;;3.10;99.90;;;;;;4815639;29;20452;-39
2023/11/24 08:59:16;;;;;;;14.15;13.55;;;3.00;99.90;;;;;;4822035;29;20199;-39
2023/11/24 09:01:42;;;;;;;14.13;13.53;;;3.00;99.90;;;;;;4809732;29;20192;-39
2023/11/24 09:04:09;;;;;;;13.87;13.17;;;2.90;99.90;;;;;;4824341;29;20187;-41
2023/11/24 09:06:38;;;;;;;12.80;12.20;;;2.90;99.90;;;;;;4824792;29;20701;-38
2023/11/24 09:09:07;;;;;;;12.85;12.35;;;2.90;99.90;;;;;;4822103;29;20195;-38
2023/11/24 09:11:33;;;;;;;13.10;12.50;;;2.70;99.90;;;;;;4813301;29;20773;-40
2023/11/24 09:13:58;;;;;;;12.83;12.23;;;2.70;99.90;;;;;;4821575;29;20327;-39
2023/11/24 09:16:24;;;;;;;13.23;12.53;;;2.60;99.90;;;;;;4824986;29;20443;-38
2023/11/24 09:18:49;;;;;;;12.20;11.60;;;2.60;99.90;;;;;;4804696;29;20222;-39
2023/11/24 09:21:17;;;;;;;11.00;10.60;;;2.60;99.90;;;;;;4818255;29;20721;-42
2023/11/24 09:23:43;;;;;;;12.10;11.50;;;2.60;99.90;;;;;;4812705;29;20658;-42
2023/11/24 09:26:09;;;;;;;12.20;11.70;;;2.60;99.90;;;;;;4817564;29;20322;-40
2023/11/24 09:28:36;;;;;;;12.90;12.20;;;2.60;99.90;;;;;;4812549;29;20432;-41
2023/11/24 09:31:08;;;;;;;12.40;11.70;;;2.60;99.90;;;;;;4824443;29;20457;-41
2023/11/24 09:33:38;;;;;;;12.32;11.73;;;2.60;99.90;;;;;;4816078;29;20200;-40
2023/11/24 09:36:07;;;;;;;12.07;11.57;;;2.50;99.90;;;;;;4824787;29;20210;-39
2023/11/24 09:38:35;;;;;;;12.70;12.20;;;2.40;99.90;;;;;;4818423;29;20191;-42
2023/11/24 09:41:08;;;;;;;13.13;12.52;;;2.40;99.90;;;;;;4825802;29;20508;-40
2023/11/24 09:43:37;;;;;;;13.90;13.30;;;2.30;99.90;;;;;;4825396;29;20262;-40
2023/11/24 09:46:10;;;;;;;14.05;13.35;;;2.20;99.90;;;;;;4810305;29;20206;-44
2023/11/24 09:48:44;;;;;;;13.32;12.60;;;2.10;99.90;;;;;;4821431;29;20190;-40
2023/11/24 09:51:12;;;;;;;12.00;11.50;;;2.00;99.90;;;;;;4825615;29;20363;-39
2023/11/24 09:53:40;;;;;;;11.02;10.52;;;1.90;99.90;;;;;;4821366;29;20190;-40
2023/11/24 09:56:07;;;;;;;11.75;11.25;;;1.90;99.90;;;;;;4804034;29;20266;-40
2023/11/24 09:58:33;;;;;;;11.85;11.25;;;1.90;99.90;;;;;;4820164;29;20197;-40
2023/11/24 10:01:15;;;;;;;10.97;10.57;;;1.90;99.90;;;;;;4816764;29;20206;-42
2023/11/24 10:03:46;;;;;;;11.95;11.45;;;1.90;99.90;;;;;;4823728;29;20435;-42
2023/11/24 10:06:13;;;;;;;10.90;10.45;;;1.90;99.90;;;;;;4812578;29;20506;-39
2023/11/24 10:08:40;;;;;;;11.75;11.20;;;1.90;99.90;;;;;;4817639;29;20200;-40
2023/11/24 10:11:27;;;;;;;11.65;11.15;;;1.90;99.90;;;;;;4817328;29;20254;-40
2023/11/24 10:13:54;;;;;;;12.00;11.50;;;1.90;99.90;;;;;;4818953;29;20196;-40
2023/11/24 10:16:21;;;;;;;13.40;12.60;;;1.80;99.90;;;;;;4819204;29;20673;-41
2023/11/24 10:18:47;;;;;;;11.70;11.20;;;1.80;99.90;;;;;;4814616;29;20186;-40
2023/11/24 10:21:13;;;;;;;11.20;10.70;;;1.90;99.90;;;;;;4807169;29;20189;-40
2023/11/24 10:23:39;;;;;;;11.65;11.15;;;2.00;99.90;;;;;;4825072;29;20447;-40
2023/11/24 10:26:15;;;;;;;11.47;10.97;;;2.20;99.90;;;;;;4818208;29;20902;-40
2023/11/24 10:28:43;;;;;;;11.13;10.63;;;2.20;99.90;;;;;;4815317;29;20195;-40
2023/11/24 10:31:09;;;;;;;11.50;10.82;;;2.40;99.90;;;;;;4816715;29;20646;-42
2023/11/24 10:33:36;;;;;;;10.70;10.20;;;2.50;99.90;;;;;;4826113;29;20201;-39
2023/11/24 10:36:04;;;;;;;10.40;9.90;;;2.60;99.90;;;;;;4819245;29;20468;-40
2023/11/24 10:38:31;;;;;;;10.73;10.23;;;2.60;99.90;;;;;;4820534;29;20493;-39
2023/11/24 10:40:59;;;;;;;10.90;10.30;;;2.60;99.90;;;;;;4816729;29;20521;-40
2023/11/24 10:43:31;;;;;;;9.95;9.45;;;2.70;99.90;;;;;;4824199;29;20238;-38
2023/11/24 10:46:01;;;;;;;10.07;9.57;;;2.80;99.90;;;;;;4823174;29;20193;-40
2023/11/24 10:48:33;;;;;;;10.43;9.60;;;3.00;99.90;;;;;;4828710;29;20302;-44
2023/11/24 10:51:04;;;;;;;10.43;10.02;;;3.10;99.90;;;;;;4827489;29;20194;-39
2023/11/24 10:53:35;;;;;;;11.40;10.80;;;3.50;99.90;;;;;;4827717;29;20628;-39
2023/11/24 10:56:03;;;;;;;10.50;9.85;;;3.70;99.90;;;;;;4825961;29;20657;-39
2023/11/24 10:58:30;;;;;;;10.38;9.95;;;4.10;99.90;;;;;;4826531;29;20188;-41
2023/11/24 11:00:56;;;;;;;10.85;10.35;;;4.40;99.90;;;;;;4830960;29;20253;-40
2023/11/24 11:03:22;;;;;;;10.27;9.88;;;4.60;99.90;;;;;;4830885;29;20204;-39
2023/11/24 11:05:51;;;;;;;11.07;10.57;;;4.40;99.90;;;;;;4831493;29;20192;-39
2023/11/24 11:08:36;;;;;;;11.18;10.57;;;4.50;99.90;;;;;;4831448;29;20213;-40
2023/11/24 11:11:05;;;;;;;10.85;10.35;;;4.50;99.90;;;;;;4831720;29;20268;-43
2023/11/24 11:13:39;;;;;;;11.50;10.90;;;4.50;99.90;;;;;;4831470;29;21310;-41
2023/11/24 11:16:08;;;;;;;11.82;11.32;;;4.50;99.90;;;;;;4831679;29;20372;-40
2023/11/24 11:18:35;;;;;;;12.35;11.57;;;4.50;99.90;;;;;;4830695;29;20197;-39
2023/11/24 11:21:34;;;;;;;11.90;11.30;;;4.40;99.90;;;;;;4832983;29;20186;-39
2023/11/24 11:24:04;;;;;;;11.45;10.95;;;4.30;99.90;;;;;;4829531;29;20239;-39
2023/11/24 11:26:50;;;;;;;12.23;11.55;;;4.10;99.90;;;;;;4825434;29;20292;-39
2023/11/24 11:29:20;;;;;;;12.98;12.23;;;3.90;99.90;;;;;;4828034;29;20228;-40
2023/11/24 11:31:50;;;;;;;13.75;12.98;;;3.80;99.90;;;;;;4830720;29;20199;-39
2023/11/24 11:34:17;;;;;;;12.82;12.23;;;3.80;99.90;;;;;;4831838;29;20197;-40
2023/11/24 11:36:53;;;;;;;14.68;13.68;;;3.70;99.90;;;;;;4832084;29;20191;-40
2023/11/24 11:39:26;;;;;;;14.15;13.45;;;3.70;99.90;;;;;;4831446;29;20188;-39
2023/11/24 11:41:54;;;;;;;13.20;12.60;;;3.60;99.90;;;;;;4832800;29;20183;-39
2023/11/24 11:44:48;;;;;;;13.00;12.20;;;3.50;99.90;;;;;;4822084;29;20188;-40
2023/11/24 11:47:20;;;;;;;13.38;12.68;;;3.40;99.90;;;;;;4828333;29;20209;-39
2023/11/24 11:49:56;;;;;;;13.07;12.43;;;3.30;99.90;;;;;;4822262;29;20270;-39
2023/11/24 11:52:27;;;;;;;13.82;12.88;;;3.30;99.90;;;;;;4825022;29;20178;-39
2023/11/24 11:54:55;;;;;;;13.20;12.35;;;3.10;99.90;;;;;;4820245;29;20215;-40
2023/11/24 11:57:22;;;;;;;13.05;12.30;;;3.10;99.90;;;;;;4822270;29;20275;-40
2023/11/24 11:59:49;;;;;;;13.40;12.30;;;3.10;99.90;;;;;;4827323;29;20207;-40
2023/11/24 12:02:16;;;;;;;11.93;11.32;;;3.20;99.90;;;;;;4825447;29;21247;-39
2023/11/24 12:04:44;;;;;;;12.75;12.05;;;3.30;99.90;;;;;;4831894;29;20666;-42
2023/11/24 12:07:11;;;;;;;12.73;11.82;;;3.40;99.90;;;;;;4822073;29;20291;-39
2023/11/24 12:09:37;;;;;;;12.75;12.15;;;3.40;99.90;;;;;;4825033;29;20675;-39
2023/11/24 12:12:03;;;;;;;12.48;11.60;;;3.50;99.90;;;;;;4819936;29;20192;-39
2023/11/24 12:14:29;;;;;;;13.38;12.68;;;3.60;99.90;;;;;;4831609;29;20230;-41
2023/11/24 12:16:56;;;;;;;13.03;12.23;;;3.70;99.90;;;;;;4813593;29;20663;-41
2023/11/24 12:19:29;;;;;;;13.35;12.55;;;3.90;99.90;;;;;;4804634;29;20185;-40
2023/11/24 12:21:56;;;;;;;12.82;12.13;;;4.20;99.90;;;;;;4824874;29;20248;-41
2023/11/24 12:24:26;;;;;;;12.27;11.68;;;4.20;99.90;;;;;;4831417;29;20196;-40
2023/11/24 12:26:53;;;;;;;14.27;13.38;;;4.00;99.90;;;;;;4813117;29;20260;-40
2023/11/24 12:29:19;;;;;;;13.82;12.88;;;4.00;99.90;;;;;;4827185;29;20200;-40
2023/11/24 12:31:44;;;;;;;13.50;12.90;;;4.00;99.90;;;;;;4828136;29;20217;-38
2023/11/24 12:34:24;;;;;;;12.83;12.23;;;3.90;99.90;;;;;;4813675;29;20200;-39
2023/11/24 12:36:53;;;;;;;13.70;12.98;;;3.90;99.90;;;;;;4816474;29;20185;-40
2023/11/24 12:39:22;;;;;;;13.70;13.00;;;4.10;99.90;;;;;;4823968;29;20184;-39
2023/11/24 12:41:48;;;;;;;14.45;13.75;;;4.70;99.90;;;;;;4829015;29;20190;-39
2023/11/24 12:44:14;;;;;;;15.27;14.37;;;5.50;99.90;;;;;;4830932;29;20676;-39
2023/11/24 12:46:40;;;;;;;14.93;14.20;;;6.10;99.90;;;;;;4831465;29;20181;-40